Time;durP1;ratioP1;P1;durP2;ratioP2;P2;SDS_P1;SDS_P2;PMS_P1;PMS_P2;Temp;Humidity;BMP_temperature;BMP_pressure;BME280_temperature;BME280_humidity;BME280_pressure;Samples;Min_cycle;Max_cycle;Signal;HPM_P1;HPM_P2
2023/04/02 00:00:19;;;;;;;3.40;2.45;;;-1.10;99.90;;;;;;5046582;28;20048;-75
2023/04/02 00:02:56;;;;;;;5.13;3.28;;;-1.10;99.90;;;;;;5043156;28;20060;-75
2023/04/02 00:08:39;;;;;;;6.22;3.83;;;-1.20;99.90;;;;;;5028460;28;20049;-75
2023/04/02 00:11:08;;;;;;;4.68;3.55;;;-1.20;99.90;;;;;;5030069;28;20056;-74
2023/04/02 00:13:39;;;;;;;6.70;3.88;;;-1.20;99.90;;;;;;5048582;28;20142;-75
2023/04/02 00:16:12;;;;;;;4.80;3.28;;;-1.20;99.90;;;;;;5032580;28;20057;-76
2023/04/02 00:18:46;;;;;;;5.20;3.05;;;-1.20;99.90;;;;;;5045172;28;20064;-75
2023/04/02 00:21:26;;;;;;;3.60;2.95;;;-1.30;99.90;;;;;;5047657;28;20057;-75
2023/04/02 00:23:57;;;;;;;5.95;2.90;;;-1.30;99.90;;;;;;5049190;28;20068;-74
2023/04/02 00:26:32;;;;;;;4.45;2.38;;;-1.30;99.90;;;;;;5052357;28;20091;-75
2023/04/02 00:29:00;;;;;;;4.32;2.65;;;-1.40;99.90;;;;;;5032630;28;20465;-75
2023/04/02 00:31:28;;;;;;;3.97;2.38;;;-1.40;99.90;;;;;;5045468;28;20136;-76
2023/04/02 00:33:56;;;;;;;3.97;2.22;;;-1.30;99.90;;;;;;5050110;28;20045;-77
2023/04/02 00:36:28;;;;;;;4.40;2.20;;;-1.30;99.90;;;;;;5049032;28;20041;-76
2023/04/02 00:39:00;;;;;;;4.13;1.65;;;-1.20;99.90;;;;;;5053441;28;20053;-75
2023/04/02 00:41:34;;;;;;;4.90;1.80;;;-1.10;99.90;;;;;;5052219;28;20059;-75
2023/04/02 00:44:04;;;;;;;3.97;1.75;;;-1.10;99.90;;;;;;5049652;28;20053;-75
2023/04/02 00:46:45;;;;;;;2.22;1.52;;;-1.00;99.90;;;;;;5045528;28;20053;-76
2023/04/02 00:49:22;;;;;;;2.25;1.35;;;-1.00;99.90;;;;;;5050835;28;20048;-76
2023/04/02 00:51:54;;;;;;;2.85;1.80;;;-1.00;99.90;;;;;;5033940;28;20067;-76
2023/04/02 00:54:25;;;;;;;;;;;-1.00;99.90;;;;;;5032740;28;20456;-76
2023/04/02 00:56:56;;;;;;;3.70;1.70;;;-0.90;99.90;;;;;;5051960;28;19925;-76
2023/04/02 00:59:29;;;;;;;2.30;1.60;;;-0.90;99.90;;;;;;5052013;28;20048;-76
2023/04/02 01:02:21;;;;;;;3.22;1.60;;;-0.90;99.90;;;;;;5053430;28;20485;-76
2023/04/02 01:04:54;;;;;;;4.03;1.70;;;-0.90;99.90;;;;;;5047053;28;20049;-77
2023/04/02 01:07:45;;;;;;;2.72;1.50;;;-1.00;99.90;;;;;;5052689;28;20049;-75
2023/04/02 01:10:41;;;;;;;3.00;1.55;;;-1.10;99.90;;;;;;5051187;28;20049;-75
2023/04/02 01:13:20;;;;;;;3.13;1.63;;;-1.10;99.90;;;;;;5050886;28;20223;-75
2023/04/02 01:15:58;;;;;;;3.58;1.58;;;-1.20;99.90;;;;;;5049819;28;20069;-76
2023/04/02 01:18:38;;;;;;;2.00;1.40;;;-1.20;99.90;;;;;;5034813;28;20072;-76
2023/04/02 01:21:52;;;;;;;4.78;2.03;;;-1.20;99.90;;;;;;5050216;28;20144;-76
2023/04/02 01:24:23;;;;;;;3.97;2.13;;;-1.20;99.90;;;;;;5008394;28;20048;-77
2023/04/02 01:26:57;;;;;;;2.35;1.50;;;-1.20;99.90;;;;;;5048413;28;20505;-78
2023/04/02 01:29:29;;;;;;;3.83;1.90;;;-1.30;99.90;;;;;;5052327;28;20501;-73
2023/04/02 01:32:02;;;;;;;3.47;1.85;;;-1.30;99.90;;;;;;5031445;28;20057;-73
2023/04/02 01:34:31;;;;;;;;;;;-1.30;99.90;;;;;;5047455;28;20060;-74
2023/04/02 01:37:21;;;;;;;2.40;1.13;;;-1.30;99.90;;;;;;5034497;28;20174;-74
2023/04/02 01:40:06;;;;;;;3.17;1.55;;;-1.30;99.90;;;;;;5051241;28;20053;-74
2023/04/02 01:42:41;;;;;;;2.47;1.33;;;-1.30;99.90;;;;;;5051244;28;20045;-74
2023/04/02 01:45:15;;;;;;;2.30;1.52;;;-1.30;99.90;;;;;;5050176;28;20052;-74
2023/04/02 01:47:44;;;;;;;4.22;1.20;;;-1.30;99.90;;;;;;5050394;28;20060;-73
2023/04/02 01:50:30;;;;;;;2.28;1.30;;;-1.30;99.90;;;;;;5045276;28;20422;-74
2023/04/02 01:53:01;;;;;;;1.92;1.30;;;-1.30;99.90;;;;;;5042499;28;20061;-74
2023/04/02 01:55:40;;;;;;;3.13;1.27;;;-1.30;99.90;;;;;;5049248;28;20040;-73
2023/04/02 01:58:10;;;;;;;1.52;1.20;;;-1.30;99.90;;;;;;5066182;28;20049;-73
2023/04/02 02:00:46;;;;;;;2.70;1.15;;;-1.40;99.90;;;;;;5049681;28;20080;-73
2023/04/02 02:03:14;;;;;;;3.83;1.67;;;-1.40;99.90;;;;;;5046761;28;20045;-73
2023/04/02 02:05:42;;;;;;;4.50;1.15;;;-1.40;99.90;;;;;;5046719;28;20040;-71
2023/04/02 02:08:31;;;;;;;2.63;1.48;;;-1.30;99.90;;;;;;5030443;28;20072;-72
2023/04/02 02:10:59;;;;;;;7.13;1.85;;;-1.30;99.90;;;;;;5046773;28;20088;-72
2023/04/02 02:13:26;;;;;;;7.03;2.00;;;-1.40;99.90;;;;;;5049451;28;20456;-72
2023/04/02 02:15:59;;;;;;;1.67;1.27;;;-1.40;99.90;;;;;;5048078;28;20045;-73
2023/04/02 02:18:27;;;;;;;2.47;1.70;;;-1.40;99.90;;;;;;5032657;28;20452;-73
2023/04/02 02:20:58;;;;;;;1.98;1.25;;;-1.40;99.90;;;;;;5050038;28;20346;-73
2023/04/02 02:23:29;;;;;;;2.53;0.93;;;-1.50;99.90;;;;;;5036892;28;20049;-74
2023/04/02 02:25:58;;;;;;;1.88;1.55;;;-1.50;99.90;;;;;;5025559;28;20049;-74
2023/04/02 02:28:28;;;;;;;3.25;1.27;;;-1.50;99.90;;;;;;5059627;28;20068;-73
2023/04/02 02:31:02;;;;;;;1.40;1.25;;;-1.60;99.90;;;;;;5030026;28;20056;-72
2023/04/02 02:33:34;;;;;;;1.50;1.02;;;-1.60;99.90;;;;;;5034657;28;20509;-73
2023/04/02 02:36:08;;;;;;;1.40;0.77;;;-1.60;99.90;;;;;;5049089;28;20052;-72
2023/04/02 02:38:48;;;;;;;1.63;1.20;;;-1.60;99.90;;;;;;5031020;28;20044;-72
2023/04/02 02:41:31;;;;;;;4.78;1.33;;;-1.50;99.90;;;;;;5049699;28;20053;-72
2023/04/02 02:44:06;;;;;;;1.40;1.17;;;-1.60;99.90;;;;;;5048867;28;20170;-72
2023/04/02 02:46:38;;;;;;;1.95;1.08;;;-1.60;99.90;;;;;;5048614;28;20179;-73
2023/04/02 02:49:13;;;;;;;3.42;1.20;;;-1.60;99.90;;;;;;5049529;28;20056;-73
2023/04/02 02:51:47;;;;;;;2.30;1.30;;;-1.60;99.90;;;;;;5048656;28;20135;-73
2023/04/02 02:54:20;;;;;;;1.63;1.10;;;-1.60;99.90;;;;;;5049729;28;20061;-74
2023/04/02 02:56:54;;;;;;;1.33;1.13;;;-1.60;99.90;;;;;;5045228;28;20081;-73
2023/04/02 02:59:23;;;;;;;3.15;1.23;;;-1.60;99.90;;;;;;5047822;28;20060;-73
2023/04/02 03:01:53;;;;;;;2.40;0.90;;;-1.60;99.90;;;;;;5045070;28;20053;-74
2023/04/02 03:04:23;;;;;;;2.08;0.90;;;-1.60;99.90;;;;;;5029680;28;20436;-72
2023/04/02 03:06:55;;;;;;;1.10;0.77;;;-1.60;99.90;;;;;;5037571;28;20048;-72
2023/04/02 03:09:35;;;;;;;5.13;1.42;;;-1.60;99.90;;;;;;5046939;28;20417;-71
2023/04/02 03:12:12;;;;;;;1.30;1.00;;;-1.70;99.90;;;;;;5046161;28;20109;-72
2023/04/02 03:14:45;;;;;;;1.40;1.10;;;-1.70;99.90;;;;;;5042697;28;20037;-73
2023/04/02 03:17:21;;;;;;;2.40;1.40;;;-1.70;99.90;;;;;;5043441;28;20056;-73
2023/04/02 03:19:54;;;;;;;1.55;1.20;;;-1.80;99.90;;;;;;5059561;28;20114;-72
2023/04/02 03:22:30;;;;;;;2.20;1.45;;;-1.80;99.90;;;;;;5032771;28;20107;-73
2023/04/02 03:25:04;;;;;;;1.17;0.98;;;-1.80;99.90;;;;;;5047036;28;20461;-72
2023/04/02 03:27:37;;;;;;;1.45;1.25;;;-1.80;99.90;;;;;;5048588;28;20457;-73
2023/04/02 03:30:29;;;;;;;2.15;1.38;;;-1.80;99.90;;;;;;5050520;28;20083;-72
2023/04/02 03:33:05;;;;;;;1.92;1.20;;;-1.80;99.90;;;;;;5050563;28;20067;-75
2023/04/02 03:35:39;;;;;;;2.20;1.23;;;-1.80;99.90;;;;;;5047158;28;20084;-74
2023/04/02 03:38:13;;;;;;;3.13;1.50;;;-1.80;99.90;;;;;;5047437;28;20492;-75
2023/04/02 03:40:59;;;;;;;1.17;0.88;;;-1.80;99.90;;;;;;5065271;28;20053;-75
2023/04/02 03:43:32;;;;;;;1.00;0.88;;;-1.80;99.90;;;;;;5045958;28;20053;-74
2023/04/02 03:46:16;;;;;;;4.13;1.60;;;-1.80;99.90;;;;;;5047113;28;20049;-74
2023/04/02 03:48:46;;;;;;;;;;;-1.80;99.90;;;;;;5050744;28;20057;-74
2023/04/02 03:51:20;;;;;;;2.10;1.00;;;-1.80;99.90;;;;;;5042070;28;19925;-74
2023/04/02 03:53:49;;;;;;;6.25;2.05;;;-1.80;99.90;;;;;;5032938;28;20148;-74
2023/04/02 03:56:28;;;;;;;2.97;1.10;;;-1.80;99.90;;;;;;5049320;28;20563;-75
2023/04/02 03:59:07;;;;;;;2.63;1.55;;;-1.80;99.90;;;;;;5069425;28;20433;-75
2023/04/02 04:01:42;;;;;;;2.00;1.52;;;-1.80;99.90;;;;;;5051558;28;20064;-76
2023/04/02 04:04:17;;;;;;;2.58;1.38;;;-1.70;99.90;;;;;;5049789;28;20057;-74
2023/04/02 04:06:51;;;;;;;2.92;1.17;;;-1.70;99.90;;;;;;5054361;28;20417;-74
2023/04/02 04:09:24;;;;;;;4.43;2.60;;;-1.70;99.90;;;;;;5051539;28;20055;-74
2023/04/02 04:12:02;;;;;;;5.93;3.15;;;-1.60;99.90;;;;;;5062964;28;20075;-74
2023/04/02 04:14:33;;;;;;;3.80;2.80;;;-1.60;99.90;;;;;;5051572;28;20566;-74
2023/04/02 04:17:12;;;;;;;6.00;3.73;;;-1.60;99.90;;;;;;5035849;28;20057;-74
2023/04/02 04:19:46;;;;;;;5.55;3.25;;;-1.60;99.90;;;;;;5052290;28;20056;-74
2023/04/02 04:22:18;;;;;;;3.17;2.88;;;-1.60;99.90;;;;;;5063265;28;20506;-74
2023/04/02 04:24:49;;;;;;;4.38;2.53;;;-1.50;99.90;;;;;;5026708;28;20045;-74
2023/04/02 04:27:32;;;;;;;5.05;2.08;;;-1.50;99.90;;;;;;5053278;28;20052;-74
2023/04/02 04:30:09;;;;;;;2.72;1.63;;;-1.50;99.90;;;;;;5050883;28;20045;-74
2023/04/02 04:32:48;;;;;;;2.22;1.70;;;-1.50;99.90;;;;;;5051136;28;20490;-74
2023/04/02 04:35:27;;;;;;;3.47;1.70;;;-1.50;99.90;;;;;;5046948;28;20085;-75
2023/04/02 04:38:02;;;;;;;3.33;1.60;;;-1.50;99.90;;;;;;5047105;28;20053;-75
2023/04/02 04:40:36;;;;;;;3.65;1.70;;;-1.40;99.90;;;;;;5050895;28;20136;-74
2023/04/02 04:43:09;;;;;;;1.85;1.30;;;-1.40;99.90;;;;;;5050874;28;20045;-73
2023/04/02 04:45:46;;;;;;;1.88;1.58;;;-1.40;99.90;;;;;;5051619;28;20049;-72
2023/04/02 04:48:21;;;;;;;1.70;1.60;;;-1.40;99.90;;;;;;5051748;28;20057;-73
2023/04/02 04:50:57;;;;;;;3.65;1.73;;;-1.40;99.90;;;;;;5051884;28;20053;-73
2023/04/02 04:53:29;;;;;;;7.07;2.00;;;-1.30;99.90;;;;;;5020628;28;20084;-75
2023/04/02 04:56:01;;;;;;;3.65;2.00;;;-1.30;99.90;;;;;;5050846;28;20140;-75
2023/04/02 04:58:37;;;;;;;2.97;1.60;;;-1.30;99.90;;;;;;5051131;28;20512;-75
2023/04/02 05:01:12;;;;;;;1.83;1.38;;;-1.20;99.90;;;;;;5045438;28;20045;-76
2023/04/02 05:03:48;;;;;;;1.88;1.20;;;-1.20;99.90;;;;;;5038734;28;20118;-75
2023/04/02 05:06:35;;;;;;;3.13;1.30;;;-1.20;99.90;;;;;;5051903;28;20061;-75
2023/04/02 05:09:14;;;;;;;4.05;1.42;;;-1.10;99.90;;;;;;5067433;28;20114;-76
2023/04/02 05:11:46;;;;;;;5.05;1.60;;;-1.10;99.90;;;;;;5029325;28;20072;-76
2023/04/02 05:14:24;;;;;;;3.10;1.15;;;-1.10;99.90;;;;;;5032817;28;20136;-76
2023/04/02 05:17:00;;;;;;;1.85;1.42;;;-1.00;99.90;;;;;;5051562;28;20052;-75
2023/04/02 05:19:37;;;;;;;2.53;1.30;;;-0.90;99.90;;;;;;5034127;28;20135;-75
2023/04/02 05:22:20;;;;;;;2.63;1.33;;;-0.90;99.90;;;;;;5062162;28;20119;-74
2023/04/02 05:24:59;;;;;;;3.72;1.38;;;-0.80;99.90;;;;;;5043446;28;20044;-75
2023/04/02 05:27:37;;;;;;;3.88;1.48;;;-0.80;99.90;;;;;;5041350;28;20407;-76
2023/04/02 05:30:28;;;;;;;7.30;1.88;;;-0.80;99.90;;;;;;5014547;28;20041;-76
2023/04/02 05:33:03;;;;;;;4.47;1.73;;;-0.70;99.90;;;;;;5050205;28;20139;-74
2023/04/02 05:35:36;;;;;;;4.47;1.60;;;-0.70;99.90;;;;;;5032332;28;20064;-77
2023/04/02 05:38:06;;;;;;;4.00;1.80;;;-0.60;99.90;;;;;;5016809;28;20425;-77
2023/04/02 05:40:40;;;;;;;2.38;1.50;;;-0.60;99.90;;;;;;5034103;28;20044;-77
2023/04/02 05:43:15;;;;;;;4.53;1.70;;;-0.50;99.90;;;;;;5050456;28;20110;-76
2023/04/02 05:45:52;;;;;;;2.30;1.40;;;-0.50;99.90;;;;;;5034414;28;20052;-75
2023/04/02 05:48:27;;;;;;;5.18;1.70;;;-0.50;99.90;;;;;;5034026;28;20440;-75
2023/04/02 05:50:58;;;;;;;4.07;1.75;;;-0.40;99.90;;;;;;5050564;28;20128;-75
2023/04/02 05:53:35;;;;;;;6.03;1.63;;;-0.30;99.90;;;;;;5030714;28;20049;-74
2023/04/02 05:56:10;;;;;;;3.85;1.50;;;-0.20;99.90;;;;;;5036730;28;20513;-75
2023/04/02 05:58:43;;;;;;;4.18;1.67;;;-0.20;99.90;;;;;;5052216;28;20528;-75
2023/04/02 06:01:39;;;;;;;3.38;1.40;;;-0.10;99.90;;;;;;5049910;28;20057;-75
2023/04/02 06:04:21;;;;;;;6.22;1.60;;;0.00;99.90;;;;;;5041967;28;20428;-76
2023/04/02 06:06:59;;;;;;;5.03;1.23;;;0.30;99.90;;;;;;5024909;28;20045;-76
2023/04/02 06:09:44;;;;;;;2.75;1.80;;;0.90;99.90;;;;;;5030164;28;20132;-77
2023/04/02 06:12:27;;;;;;;2.85;1.50;;;1.90;99.90;;;;;;5047738;28;20575;-75
2023/04/02 06:14:56;;;;;;;2.72;1.65;;;3.00;99.90;;;;;;5049970;28;20049;-75
2023/04/02 06:17:27;;;;;;;4.63;1.80;;;4.00;99.90;;;;;;5058295;28;20049;-74
2023/04/02 06:19:58;;;;;;;3.70;1.80;;;4.80;99.90;;;;;;5046181;28;20455;-74
2023/04/02 06:22:39;;;;;;;5.80;1.90;;;5.50;99.90;;;;;;5053848;23;20058;-73
2023/04/02 06:25:25;;;;;;;3.92;2.33;;;6.10;99.90;;;;;;5011660;28;20050;-74
2023/04/02 06:27:58;;;;;;;6.70;2.53;;;6.70;99.90;;;;;;5003994;28;20503;-73
2023/04/02 06:30:32;;;;;;;3.50;2.28;;;7.10;99.90;;;;;;4988263;28;20430;-78
2023/04/02 06:33:04;;;;;;;3.33;1.80;;;7.40;99.90;;;;;;5000682;28;20058;-78
2023/04/02 06:35:35;;;;;;;2.15;1.60;;;7.50;99.90;;;;;;4984959;28;20145;-73
2023/04/02 06:38:08;;;;;;;3.92;1.92;;;7.70;99.90;;;;;;4999393;28;20054;-73
2023/04/02 06:40:42;;;;;;;5.47;1.98;;;8.10;99.90;;;;;;4998547;28;20042;-76
2023/04/02 06:43:32;;;;;;;7.68;2.17;;;8.40;99.90;;;;;;4979483;28;20129;-77
2023/04/02 06:46:28;;;;;;;3.88;2.30;;;8.80;99.90;;;;;;4978454;28;20054;-74
2023/04/02 06:49:15;;;;;;;3.72;1.73;;;9.30;99.90;;;;;;4992371;28;20418;-78
2023/04/02 06:51:45;;;;;;;4.50;1.55;;;9.50;99.30;;;;;;4972142;28;20078;-77
2023/04/02 06:54:18;;;;;;;5.45;3.08;;;9.50;96.50;;;;;;4993580;28;20077;-77
2023/04/02 06:56:55;;;;;;;5.45;2.17;;;9.40;96.40;;;;;;4967399;28;20047;-78
2023/04/02 06:59:37;;;;;;;4.30;1.70;;;9.20;96.20;;;;;;5000644;28;20061;-77
2023/04/02 07:02:26;;;;;;;3.42;1.25;;;9.50;96.00;;;;;;4991662;28;20047;-77
2023/04/02 07:05:01;;;;;;;3.47;1.60;;;10.00;95.10;;;;;;4958735;28;20046;-77
2023/04/02 07:07:30;;;;;;;3.90;1.30;;;10.50;92.80;;;;;;4964410;28;20055;-76
2023/04/02 07:10:00;;;;;;;4.18;1.65;;;10.30;92.30;;;;;;4979303;28;20061;-77
2023/04/02 07:12:29;;;;;;;5.68;1.70;;;10.40;91.70;;;;;;5008929;28;20523;-76
2023/04/02 07:14:57;;;;;;;4.32;1.73;;;10.90;91.20;;;;;;4970696;28;20539;-78
2023/04/02 07:17:25;;;;;;;5.70;1.85;;;11.70;89.20;;;;;;4955199;28;20157;-80
2023/04/02 07:19:52;;;;;;;2.42;1.20;;;12.20;84.00;;;;;;4998016;28;20038;-79
2023/04/02 07:22:22;;;;;;;4.18;1.52;;;12.80;81.60;;;;;;4971993;28;20054;-79
2023/04/02 07:24:57;;;;;;;2.22;1.50;;;13.20;78.20;;;;;;4986192;28;20428;-79
2023/04/02 07:27:25;;;;;;;3.60;1.30;;;13.40;74.60;;;;;;4991954;28;20411;-78
2023/04/02 07:29:53;;;;;;;2.78;1.58;;;13.40;73.60;;;;;;4975144;28;20621;-78
2023/04/02 07:32:21;;;;;;;3.28;1.17;;;13.30;73.80;;;;;;4974495;28;20415;-75
2023/04/02 07:34:48;;;;;;;2.38;1.20;;;13.20;72.20;;;;;;4985548;28;20046;-76
2023/04/02 07:37:16;;;;;;;1.13;1.00;;;13.60;72.40;;;;;;4992806;28;20050;-77
2023/04/02 07:39:43;;;;;;;5.63;1.20;;;14.20;69.90;;;;;;4991589;28;20046;-76
2023/04/02 07:42:11;;;;;;;4.65;1.25;;;14.80;68.00;;;;;;4998391;28;20100;-76
2023/04/02 07:44:38;;;;;;;5.15;1.70;;;15.50;65.40;;;;;;4985877;28;20046;-79
2023/04/02 07:47:09;;;;;;;4.15;1.17;;;16.00;63.00;;;;;;4991374;28;20108;-77
2023/04/02 07:49:36;;;;;;;2.97;1.20;;;15.50;60.70;;;;;;4986166;28;20050;-79
2023/04/02 07:52:07;;;;;;;3.08;1.17;;;14.80;61.10;;;;;;4988264;28;20046;-79
2023/04/02 07:54:37;;;;;;;4.15;1.30;;;14.00;62.10;;;;;;5003977;28;20058;-80
2023/04/02 07:57:04;;;;;;;4.93;1.13;;;13.60;64.10;;;;;;4959473;28;20046;-80
2023/04/02 07:59:32;;;;;;;2.63;0.70;;;12.80;64.50;;;;;;4953877;28;20050;-79
2023/04/02 08:02:03;;;;;;;3.05;1.30;;;11.80;66.30;;;;;;4994480;28;20065;-73
2023/04/02 08:04:35;;;;;;;1.77;1.00;;;11.00;68.40;;;;;;4992794;28;20042;-78
2023/04/02 08:07:03;;;;;;;3.42;1.08;;;10.60;70.10;;;;;;5006787;28;20054;-78
2023/04/02 08:09:31;;;;;;;3.10;0.82;;;10.40;71.50;;;;;;4994922;28;20043;-80
2023/04/02 08:12:04;;;;;;;3.50;0.90;;;10.20;71.50;;;;;;4974497;28;20050;-80
2023/04/02 08:14:32;;;;;;;3.47;1.10;;;;;;;;;;4990041;28;20066;-80
2023/04/02 08:17:00;;;;;;;3.42;1.15;;;9.90;72.10;;;;;;4972033;28;20402;-78
2023/04/02 08:19:32;;;;;;;6.10;1.20;;;9.40;72.80;;;;;;4989861;28;20050;-79
2023/04/02 08:22:06;;;;;;;5.18;1.40;;;9.00;74.00;;;;;;4970779;28;20051;-79
2023/04/02 08:24:34;;;;;;;9.55;5.32;;;8.50;75.20;;;;;;4987731;28;20046;-78
2023/04/02 08:27:04;;;;;;;3.90;1.15;;;8.00;76.40;;;;;;4991166;28;20065;-78
2023/04/02 08:29:32;;;;;;;4.10;1.27;;;7.60;78.90;;;;;;4979914;28;20093;-77
2023/04/02 08:32:00;;;;;;;1.77;1.00;;;8.60;80.40;;;;;;4991101;28;20486;-75
2023/04/02 08:34:29;;;;;;;2.28;1.10;;;9.70;76.60;;;;;;4985820;28;20058;-76
2023/04/02 08:37:01;;;;;;;1.88;0.90;;;11.30;72.90;;;;;;4972738;28;20050;-78
2023/04/02 08:39:31;;;;;;;1.40;0.70;;;13.10;68.90;;;;;;4988755;28;20144;-76
2023/04/02 08:42:08;;;;;;;2.72;1.10;;;14.40;65.20;;;;;;4988662;28;20074;-78
2023/04/02 08:44:46;;;;;;;3.92;1.23;;;15.80;60.80;;;;;;4989899;28;20050;-76
2023/04/02 08:47:17;;;;;;;2.38;1.13;;;16.50;58.40;;;;;;4986726;28;20053;-77
2023/04/02 08:49:53;;;;;;;2.65;1.25;;;16.20;56.80;;;;;;4989026;28;20058;-79
2023/04/02 08:52:27;;;;;;;3.47;1.30;;;14.90;57.60;;;;;;4990525;28;20054;-79
2023/04/02 08:54:56;;;;;;;2.70;1.10;;;13.50;59.80;;;;;;4990844;28;20050;-80
2023/04/02 08:57:36;;;;;;;2.80;0.98;;;12.20;62.40;;;;;;4992185;28;20109;-80
2023/04/02 09:00:21;;;;;;;2.58;0.93;;;11.00;65.30;;;;;;4973830;28;20308;-76
2023/04/02 09:02:59;;;;;;;3.90;1.00;;;10.00;67.90;;;;;;4992192;28;20142;-77
2023/04/02 09:05:33;;;;;;;3.70;1.25;;;9.30;71.20;;;;;;4969850;28;20507;-79
2023/04/02 09:08:05;;;;;;;6.32;1.15;;;8.90;73.50;;;;;;4989934;28;20050;-76
2023/04/02 09:10:41;;;;;;;4.63;1.00;;;8.90;75.30;;;;;;4984407;28;20538;-78
2023/04/02 09:13:17;;;;;;;4.90;1.13;;;9.50;76.20;;;;;;4987705;28;20058;-80
2023/04/02 09:15:45;;;;;;;2.55;1.05;;;10.50;73.70;;;;;;4983426;28;20423;-79
2023/04/02 09:18:16;;;;;;;3.10;0.95;;;11.30;72.20;;;;;;4990135;28;20054;-80
2023/04/02 09:20:46;;;;;;;4.43;0.98;;;11.40;70.40;;;;;;4986850;28;20050;-79
2023/04/02 09:23:20;;;;;;;2.60;0.90;;;10.80;69.70;;;;;;4987892;28;20061;-78
2023/04/02 09:25:50;;;;;;;4.65;1.20;;;10.10;72.40;;;;;;4969949;28;20043;-77
2023/04/02 09:28:22;;;;;;;2.25;1.38;;;9.20;73.40;;;;;;4977231;28;20055;-77
2023/04/02 09:31:12;;;;;;;2.20;1.10;;;8.60;76.60;;;;;;4985215;28;20133;-76
2023/04/02 09:33:48;;;;;;;2.85;0.65;;;8.10;79.60;;;;;;4968478;28;20046;-74
2023/04/02 09:36:34;;;;;;;2.00;1.05;;;7.60;80.00;;;;;;4988333;28;20057;-76
2023/04/02 09:39:07;;;;;;;2.10;1.00;;;;;;;;;;4975058;28;20132;-77
2023/04/02 09:41:38;;;;;;;;;;;7.20;82.90;;;;;;4997225;28;20061;-79
2023/04/02 09:44:23;;;;;;;0.90;0.85;;;7.10;83.10;;;;;;4998173;28;20312;-78
2023/04/02 09:46:58;;;;;;;1.58;0.73;;;6.90;84.80;;;;;;4996557;28;20062;-77
2023/04/02 09:49:29;;;;;;;4.97;1.05;;;6.90;85.20;;;;;;4952431;28;20061;-79
2023/04/02 09:52:21;;;;;;;3.05;1.08;;;7.00;85.60;;;;;;4988216;28;20058;-79
2023/04/02 09:55:20;;;;;;;2.75;1.70;;;6.80;86.90;;;;;;4972145;28;20047;-78
2023/04/02 09:57:50;;;;;;;1.10;0.70;;;6.60;87.70;;;;;;4989041;28;20474;-78
2023/04/02 10:00:23;;;;;;;3.45;0.90;;;6.60;88.30;;;;;;4987238;28;20499;-74
2023/04/02 10:03:04;;;;;;;3.55;1.00;;;6.80;89.60;;;;;;4982941;28;20053;-77
2023/04/02 10:05:34;;;;;;;8.75;1.23;;;7.00;88.40;;;;;;4986420;28;20051;-78
2023/04/02 10:08:18;;;;;;;1.90;1.13;;;7.20;87.20;;;;;;4967926;28;20049;-77
2023/04/02 10:10:50;;;;;;;4.68;1.20;;;7.20;87.20;;;;;;4988787;28;20161;-78
2023/04/02 10:13:24;;;;;;;2.40;1.00;;;7.30;89.20;;;;;;4981556;28;20138;-78
2023/04/02 10:15:57;;;;;;;2.05;0.75;;;7.20;87.40;;;;;;4978496;28;20054;-77
2023/04/02 10:18:39;;;;;;;2.25;1.13;;;7.20;88.00;;;;;;4989352;28;20061;-79
2023/04/02 10:21:11;;;;;;;1.10;0.73;;;7.30;87.50;;;;;;4974904;28;20058;-80
2023/04/02 10:23:42;;;;;;;2.63;0.82;;;7.80;86.40;;;;;;4959065;28;20575;-79
2023/04/02 10:26:38;;;;;;;4.80;1.58;;;9.10;84.40;;;;;;4987984;28;20156;-80
2023/04/02 10:29:19;;;;;;;1.38;0.85;;;11.60;81.30;;;;;;4959936;28;20054;-78
2023/04/02 10:31:58;;;;;;;1.13;0.77;;;12.70;71.30;;;;;;4984164;28;20515;-79
2023/04/02 10:34:36;;;;;;;1.75;1.02;;;12.20;70.10;;;;;;4972278;28;20054;-80
2023/04/02 10:37:36;;;;;;;3.22;0.80;;;12.20;70.80;;;;;;4986904;28;20132;-82
2023/04/02 10:40:11;;;;;;;3.70;0.93;;;12.60;68.50;;;;;;4990092;28;20514;-77
2023/04/02 10:42:52;;;;;;;1.10;1.00;;;13.10;69.20;;;;;;4974729;28;20104;-79
2023/04/02 10:45:34;;;;;;;5.43;1.55;;;13.20;66.10;;;;;;4996344;28;20505;-79
2023/04/02 10:48:13;;;;;;;2.47;1.25;;;12.70;66.60;;;;;;4999216;28;20590;-79
2023/04/02 10:50:52;;;;;;;2.95;1.17;;;11.90;67.90;;;;;;4953902;28;20056;-80
2023/04/02 10:53:34;;;;;;;1.60;0.77;;;11.40;69.70;;;;;;4966563;28;20050;-78
2023/04/02 10:56:12;;;;;;;0.60;0.60;;;11.90;69.80;;;;;;4949432;28;20491;-79
2023/04/02 10:58:54;;;;;;;2.17;0.93;;;12.30;67.60;;;;;;4949243;28;20051;-82
2023/04/02 11:01:28;;;;;;;1.65;0.85;;;11.60;68.50;;;;;;5003574;28;20055;-80
2023/04/02 11:04:01;;;;;;;3.25;1.70;;;11.00;69.90;;;;;;4969446;28;20063;-81
2023/04/02 11:06:35;;;;;;;6.60;1.90;;;10.50;72.20;;;;;;4967006;28;20149;-81
2023/04/02 11:09:11;;;;;;;3.78;1.20;;;10.90;74.50;;;;;;4978705;28;20051;-77
2023/04/02 11:11:47;;;;;;;2.67;1.15;;;10.90;71.20;;;;;;4964581;28;20050;-74
2023/04/02 11:14:21;;;;;;;4.30;1.77;;;10.70;71.20;;;;;;4988053;28;20073;-77
2023/04/02 11:16:49;;;;;;;2.95;1.50;;;11.20;72.50;;;;;;4971878;28;20057;-76
2023/04/02 11:19:29;;;;;;;2.53;1.73;;;12.60;70.20;;;;;;4971918;28;20047;-75
2023/04/02 11:21:59;;;;;;;2.20;1.65;;;12.80;66.20;;;;;;4984581;28;20081;-78
2023/04/02 11:24:37;;;;;;;1.75;1.15;;;12.00;67.00;;;;;;4989099;28;20132;-79
2023/04/02 11:27:30;;;;;;;4.35;1.50;;;11.20;70.50;;;;;;4989385;28;20054;-79
2023/04/02 11:30:07;;;;;;;2.25;1.27;;;10.40;72.80;;;;;;4981839;28;20058;-75
2023/04/02 11:32:38;;;;;;;3.35;1.38;;;9.90;75.50;;;;;;4971070;28;20503;-74
2023/04/02 11:35:37;;;;;;;1.88;1.30;;;10.90;75.20;;;;;;4988698;28;20522;-76
2023/04/02 11:38:52;;;;;;;1.30;1.20;;;10.80;71.80;;;;;;5004750;28;20061;-76
2023/04/02 11:42:03;;;;;;;1.70;1.60;;;9.90;73.80;;;;;;4989691;28;20109;-78
2023/04/02 11:44:31;;;;;;;3.10;1.13;;;9.00;77.20;;;;;;4989199;28;20061;-75
2023/04/02 11:47:23;;;;;;;3.88;1.33;;;8.70;79.10;;;;;;4972098;28;20133;-81
2023/04/02 11:50:05;;;;;;;3.63;1.00;;;8.80;80.80;;;;;;4984688;28;20081;-80
2023/04/02 11:52:51;;;;;;;1.48;0.90;;;8.80;79.40;;;;;;5003477;28;20081;-78
2023/04/02 11:55:26;;;;;;;2.72;1.30;;;8.80;80.60;;;;;;4985810;28;20478;-79
2023/04/02 11:58:38;;;;;;;6.47;1.10;;;8.80;79.00;;;;;;4987712;28;20105;-78
2023/04/02 12:01:59;;;;;;;3.88;1.30;;;8.60;79.70;;;;;;4971362;28;20085;-80
2023/04/02 12:05:06;;;;;;;1.75;0.80;;;8.20;81.90;;;;;;4926735;28;20146;-81
2023/04/02 12:08:24;;;;;;;2.40;0.98;;;7.90;83.30;;;;;;4984819;28;20131;-80
2023/04/02 12:10:56;;;;;;;1.60;0.88;;;8.30;83.80;;;;;;4976815;28;20120;-76
2023/04/02 12:14:00;;;;;;;4.55;1.40;;;8.90;81.40;;;;;;4991636;28;20096;-78
2023/04/02 12:16:31;;;;;;;1.60;0.90;;;9.40;80.20;;;;;;4982197;28;20104;-82
2023/04/02 12:19:01;;;;;;;1.73;0.90;;;9.60;79.30;;;;;;4963714;28;20145;-80
2023/04/02 12:21:30;;;;;;;2.47;0.80;;;9.40;79.40;;;;;;4995086;28;20286;-80
2023/04/02 12:23:59;;;;;;;2.03;0.90;;;9.10;79.90;;;;;;5000899;28;20041;-79
2023/04/02 12:26:36;;;;;;;1.85;0.98;;;9.20;78.50;;;;;;4996669;28;20050;-74
2023/04/02 12:29:32;;;;;;;8.23;1.63;;;9.20;78.60;;;;;;4966547;28;20089;-83
2023/04/02 12:32:02;;;;;;;1.50;0.65;;;9.20;80.20;;;;;;4950417;28;20049;-81
2023/04/02 12:34:35;;;;;;;3.58;1.10;;;9.00;77.30;;;;;;4977986;28;20633;-83
2023/04/02 12:37:05;;;;;;;2.10;0.93;;;9.10;77.40;;;;;;4995423;28;20050;-73
2023/04/02 12:39:35;;;;;;;1.05;0.60;;;9.40;77.30;;;;;;4996579;28;20408;-75
2023/04/02 12:42:03;;;;;;;0.85;0.68;;;9.40;75.40;;;;;;4992726;28;20043;-75
2023/04/02 12:44:31;;;;;;;2.60;0.70;;;9.00;76.30;;;;;;4982206;28;20052;-75
2023/04/02 12:46:59;;;;;;;1.35;0.80;;;8.50;77.60;;;;;;4976248;28;20137;-73
2023/04/02 12:49:35;;;;;;;2.05;0.70;;;8.30;78.70;;;;;;4981463;28;20034;-83
2023/04/02 12:52:07;;;;;;;3.45;0.77;;;7.90;78.90;;;;;;4999003;28;20057;-80
2023/04/02 12:54:45;;;;;;;2.27;1.20;;;7.50;80.50;;;;;;4994982;28;20487;-76
2023/04/02 12:57:36;;;;;;;2.17;1.13;;;7.20;82.80;;;;;;5007890;28;20057;-73
2023/04/02 13:00:33;;;;;;;5.65;1.10;;;7.40;83.90;;;;;;4988837;28;20539;-73
2023/04/02 13:03:16;;;;;;;0.52;0.52;;;7.70;81.30;;;;;;4985646;28;20050;-74
2023/04/02 13:05:51;;;;;;;3.78;1.38;;;7.70;81.30;;;;;;4988977;28;20061;-80
2023/04/02 13:08:26;;;;;;;2.65;0.60;;;8.10;82.70;;;;;;4996782;28;20051;-70
2023/04/02 13:10:58;;;;;;;2.58;0.70;;;8.50;79.50;;;;;;4986374;28;20709;-75
2023/04/02 13:13:30;;;;;;;2.50;0.82;;;8.60;78.80;;;;;;4970503;28;20050;-76
2023/04/02 13:16:08;;;;;;;1.50;0.65;;;8.50;78.40;;;;;;4990616;28;20049;-73
2023/04/02 13:18:38;;;;;;;3.78;1.08;;;8.40;80.20;;;;;;4974188;28;20456;-80
2023/04/02 13:21:06;;;;;;;2.10;1.05;;;8.10;80.80;;;;;;4993668;28;20430;-79
2023/04/02 13:23:38;;;;;;;2.22;0.98;;;7.70;80.20;;;;;;4974329;28;20467;-79
2023/04/02 13:26:17;;;;;;;4.10;1.05;;;7.40;80.70;;;;;;4977468;28;20089;-78
2023/04/02 13:29:00;;;;;;;2.13;0.93;;;7.10;82.00;;;;;;4985702;28;20089;-79
2023/04/02 13:31:28;;;;;;;1.05;0.98;;;7.40;82.30;;;;;;4983919;28;20058;-80
2023/04/02 13:33:59;;;;;;;1.52;1.00;;;7.30;80.60;;;;;;4976871;28;20488;-79
2023/04/02 13:36:30;;;;;;;2.53;1.00;;;7.10;81.90;;;;;;5002990;28;20061;-80
2023/04/02 13:38:59;;;;;;;2.88;0.90;;;7.10;82.40;;;;;;4992824;28;20046;-73
2023/04/02 13:41:30;;;;;;;3.28;1.00;;;8.00;82.30;;;;;;4968604;28;20260;-72